createdAt,value
2023-03-15T00:01:08.205Z,0.00
2023-03-15T00:06:08.164Z,0.00
2023-03-15T00:11:08.051Z,0.00
2023-03-15T00:16:08.085Z,0.00
2023-03-15T00:21:07.948Z,0.00
2023-03-15T00:26:07.886Z,0.00
2023-03-15T00:31:07.867Z,0.00
2023-03-15T00:36:07.807Z,0.00
2023-03-15T00:41:07.683Z,0.00
2023-03-15T00:46:07.620Z,0.00
2023-03-15T00:51:07.555Z,0.00
2023-03-15T00:56:07.506Z,0.00
2023-03-15T01:01:07.420Z,0.00
2023-03-15T01:06:34.368Z,0.00
2023-03-15T01:11:26.798Z,0.00
2023-03-15T01:16:26.769Z,0.00
2023-03-15T01:21:26.663Z,0.00
2023-03-15T01:26:26.578Z,0.00
2023-03-15T01:31:26.575Z,0.00
2023-03-15T01:36:26.458Z,0.00
2023-03-15T01:41:26.376Z,0.00
2023-03-15T01:46:26.435Z,0.00
2023-03-15T01:51:26.261Z,0.00
2023-03-15T01:56:26.212Z,0.00
2023-03-15T02:01:26.157Z,0.00
2023-03-15T02:06:26.045Z,0.00
2023-03-15T02:11:26.033Z,0.00
2023-03-15T02:16:25.965Z,0.00
2023-03-15T02:21:25.897Z,0.00
2023-03-15T02:26:25.791Z,0.00
2023-03-15T02:31:25.812Z,0.00
2023-03-15T02:36:25.681Z,0.00
2023-03-15T02:41:25.620Z,0.00
2023-03-15T02:46:25.598Z,0.00
2023-03-15T02:51:25.496Z,0.00
2023-03-15T02:56:25.534Z,0.00
2023-03-15T03:01:25.392Z,0.00
2023-03-15T03:06:25.295Z,0.00
2023-03-15T03:11:25.239Z,0.00
2023-03-15T03:16:25.197Z,0.00
2023-03-15T03:21:25.106Z,0.00
2023-03-15T03:26:25.009Z,0.00
2023-03-15T03:31:25.010Z,0.00
2023-03-15T03:36:24.902Z,0.00
2023-03-15T03:41:24.848Z,0.00
2023-03-15T03:46:24.814Z,0.00
2023-03-15T03:51:24.785Z,0.00
2023-03-15T03:56:24.653Z,0.00
2023-03-15T04:01:24.596Z,0.00
2023-03-15T04:06:24.501Z,0.00
2023-03-15T04:11:24.484Z,0.00
2023-03-15T04:16:24.468Z,0.00
2023-03-15T04:21:24.346Z,0.00
2023-03-15T04:26:24.268Z,0.00
2023-03-15T04:31:24.252Z,0.00
2023-03-15T04:36:24.140Z,0.00
2023-03-15T04:41:24.078Z,0.00
2023-03-15T04:46:25.056Z,0.00
2023-03-15T04:51:23.958Z,0.00
2023-03-15T04:56:23.871Z,0.00
2023-03-15T05:01:23.809Z,0.00
2023-03-15T05:06:23.739Z,0.00
2023-03-15T05:11:23.712Z,0.00
2023-03-15T05:16:56.061Z,0.00
2023-03-15T05:21:48.431Z,0.00
2023-03-15T05:26:48.377Z,0.00
2023-03-15T05:31:48.335Z,0.00
2023-03-15T05:36:48.244Z,4.00
2023-03-15T05:41:48.182Z,12.00
2023-03-15T05:46:48.125Z,12.00
2023-03-15T05:51:48.044Z,12.00
2023-03-15T05:56:47.987Z,28.00
2023-03-15T06:01:47.929Z,48.00
2023-03-15T06:06:47.852Z,64.00
2023-03-15T06:11:47.774Z,80.00
2023-03-15T06:16:47.755Z,112.00
2023-03-15T06:21:47.668Z,160.00
2023-03-15T06:26:47.612Z,188.00
2023-03-15T06:31:47.519Z,204.00
2023-03-15T06:36:47.463Z,340.00
2023-03-15T06:41:47.398Z,408.00
2023-03-15T06:46:47.339Z,500.00
2023-03-15T06:51:47.270Z,684.00
2023-03-15T06:56:47.225Z,1072.00
2023-03-15T07:01:47.176Z,832.00
2023-03-15T07:06:47.092Z,612.00
2023-03-15T07:11:47.017Z,676.00
2023-03-15T07:16:46.976Z,748.00
2023-03-15T07:21:46.898Z,688.00
2023-03-15T07:26:46.848Z,492.00
2023-03-15T07:31:46.765Z,800.00
2023-03-15T07:36:46.722Z,972.00
2023-03-15T07:41:46.613Z,1056.00
2023-03-15T07:46:46.616Z,600.00
2023-03-15T07:51:46.512Z,752.00
2023-03-15T07:56:46.450Z,1404.00
2023-03-15T08:01:46.400Z,1252.00
2023-03-15T08:06:46.333Z,852.00
2023-03-15T08:11:46.246Z,1212.00
2023-03-15T08:16:46.287Z,1588.00
2023-03-15T08:21:46.126Z,1668.00
2023-03-15T08:26:46.095Z,1536.00
2023-03-15T08:31:46.082Z,1416.00
2023-03-15T08:36:45.987Z,1528.00
2023-03-15T08:41:45.878Z,1272.00
2023-03-15T08:46:45.894Z,2160.00
2023-03-15T08:51:45.714Z,4012.00
2023-03-15T08:56:45.662Z,6684.00
2023-03-15T09:01:45.584Z,5272.00
2023-03-15T09:06:45.542Z,8980.00
2023-03-15T09:11:45.488Z,7324.00
2023-03-15T09:16:45.506Z,9904.00
2023-03-15T09:21:45.336Z,9888.00
2023-03-15T09:26:45.298Z,8072.00
2023-03-15T09:31:45.200Z,7160.00
2023-03-15T09:36:46.073Z,4740.00
2023-03-15T09:41:45.054Z,6328.00
2023-03-15T09:46:45.094Z,6044.00
2023-03-15T09:51:45.027Z,6072.00
2023-03-15T09:56:45.364Z,8652.00
2023-03-15T10:01:44.969Z,12696.00
2023-03-15T10:06:44.754Z,31776.00
2023-03-15T10:11:44.692Z,37216.00
2023-03-15T10:16:44.684Z,39232.00
2023-03-15T10:21:44.584Z,33472.00
2023-03-15T10:31:45.186Z,10024.00
2023-03-15T10:36:44.349Z,8072.00
2023-03-15T10:41:44.288Z,5952.00
2023-03-15T10:46:44.365Z,5016.00
2023-03-15T10:51:44.188Z,3848.00
2023-03-15T10:56:44.089Z,39872.00
2023-03-15T11:01:44.131Z,44256.00
2023-03-15T11:06:43.945Z,48192.00
2023-03-15T11:11:43.905Z,38304.00
2023-03-15T11:16:43.822Z,23296.00
2023-03-15T11:21:43.747Z,5424.00
2023-03-15T11:26:43.692Z,4196.00
2023-03-15T11:31:43.713Z,7608.00
2023-03-15T11:36:43.607Z,5216.00
2023-03-15T11:41:43.507Z,33024.00
2023-03-15T11:46:43.416Z,32064.00
2023-03-15T11:51:43.388Z,11180.00
2023-03-15T11:56:43.292Z,33824.00
2023-03-15T12:01:43.244Z,35104.00
2023-03-15T12:06:43.168Z,9040.00
2023-03-15T12:11:43.110Z,5104.00
2023-03-15T12:16:43.070Z,4408.00
2023-03-15T12:21:43.021Z,6452.00
2023-03-15T12:26:42.903Z,4620.00
2023-03-15T12:31:42.871Z,19360.00
2023-03-15T12:36:42.765Z,15968.00
2023-03-15T12:41:42.698Z,15040.00
2023-03-15T12:46:42.608Z,12800.00
2023-03-15T12:51:42.590Z,4844.00
2023-03-15T12:56:42.539Z,7368.00
2023-03-15T13:01:42.467Z,3904.00
2023-03-15T13:06:42.368Z,4540.00
2023-03-15T13:11:42.311Z,5088.00
2023-03-15T13:16:42.290Z,6228.00
2023-03-15T13:21:42.176Z,5976.00
2023-03-15T13:26:42.101Z,3104.00
2023-03-15T13:31:42.090Z,3164.00
2023-03-15T13:36:42.168Z,5752.00
2023-03-15T13:41:41.927Z,5576.00
2023-03-15T13:46:41.968Z,5524.00
2023-03-15T13:51:41.790Z,5660.00
2023-03-15T13:56:49.310Z,5520.00
2023-03-15T14:01:42.767Z,5408.00
2023-03-15T14:06:41.548Z,5388.00
2023-03-15T14:11:41.521Z,5068.00
2023-03-15T14:16:57.317Z,3044.00
2023-03-15T14:21:42.392Z,4824.00
2023-03-15T14:26:41.311Z,5204.00
2023-03-15T14:31:41.331Z,2904.00
2023-03-15T14:36:41.192Z,2800.00
2023-03-15T14:41:41.139Z,2628.00
2023-03-15T14:46:41.060Z,2540.00
2023-03-15T14:51:41.323Z,2532.00
2023-03-15T14:56:42.659Z,2548.00
2023-03-15T15:01:40.863Z,2512.00
2023-03-15T15:06:40.847Z,2348.00
2023-03-15T15:11:40.987Z,1964.00
2023-03-15T15:16:40.673Z,1748.00
2023-03-15T15:21:40.584Z,1828.00
2023-03-15T15:26:40.524Z,1864.00
2023-03-15T15:31:41.437Z,1816.00
2023-03-15T15:36:40.375Z,1716.00
2023-03-15T15:41:40.310Z,2056.00
2023-03-15T15:46:40.240Z,1772.00
2023-03-15T15:51:40.175Z,1972.00
2023-03-15T15:56:40.133Z,1856.00
2023-03-15T16:01:56.516Z,1672.00
2023-03-15T16:06:40.979Z,1648.00
2023-03-15T16:11:39.918Z,1572.00
2023-03-15T16:16:39.835Z,1372.00
2023-03-15T16:21:39.807Z,1264.00
2023-03-15T16:26:39.731Z,1100.00
2023-03-15T16:31:39.734Z,976.00
2023-03-15T16:36:39.592Z,888.00
2023-03-15T16:41:39.577Z,792.00
2023-03-15T16:46:39.476Z,692.00
2023-03-15T16:51:39.405Z,592.00
2023-03-15T16:56:39.334Z,512.00
2023-03-15T17:01:39.301Z,436.00
2023-03-15T17:06:40.112Z,364.00
2023-03-15T17:11:39.126Z,288.00
2023-03-15T17:16:39.094Z,220.00
2023-03-15T17:21:38.991Z,152.00
2023-03-15T17:26:38.946Z,104.00
2023-03-15T17:31:38.913Z,68.00
2023-03-15T17:36:38.819Z,44.00
2023-03-15T17:41:38.732Z,20.00
2023-03-15T17:46:38.773Z,8.00
2023-03-15T17:51:38.597Z,4.00
2023-03-15T17:56:38.569Z,4.00
2023-03-15T18:01:38.505Z,0.00
2023-03-15T18:06:38.420Z,0.00
2023-03-15T18:11:38.350Z,0.00
2023-03-15T18:16:38.361Z,0.00
2023-03-15T18:21:38.246Z,0.00
2023-03-15T18:26:38.195Z,0.00
2023-03-15T18:31:38.158Z,0.00
2023-03-15T18:36:38.038Z,0.00
2023-03-15T18:41:38.019Z,0.00
2023-03-15T18:46:37.945Z,0.00
2023-03-15T18:51:37.818Z,0.00
2023-03-15T18:56:37.768Z,0.00
2023-03-15T19:01:37.791Z,0.00
2023-03-15T19:06:37.659Z,0.00
2023-03-15T19:11:37.563Z,0.00
2023-03-15T19:16:37.555Z,0.00
2023-03-15T19:21:37.420Z,0.00
2023-03-15T19:26:37.400Z,0.00
2023-03-15T19:31:37.358Z,0.00
2023-03-15T19:36:37.246Z,0.00
2023-03-15T19:41:37.186Z,0.00
2023-03-15T19:46:37.210Z,0.00
2023-03-15T19:51:37.048Z,0.00
2023-03-15T19:56:37.019Z,0.00
2023-03-15T20:01:37.128Z,0.00
2023-03-15T20:06:37.063Z,0.00
2023-03-15T20:11:36.784Z,0.00
2023-03-15T20:16:36.811Z,0.00
2023-03-15T20:21:36.681Z,0.00
2023-03-15T20:26:36.666Z,0.00
2023-03-15T20:31:36.603Z,0.00
2023-03-15T20:36:36.582Z,0.00
2023-03-15T20:41:36.400Z,0.00
2023-03-15T20:46:36.421Z,0.00
2023-03-15T20:51:36.247Z,0.00
2023-03-15T20:56:36.257Z,0.00
2023-03-15T21:01:36.158Z,0.00
2023-03-15T21:06:36.112Z,0.00
2023-03-15T21:11:35.993Z,0.00
2023-03-15T21:16:36.055Z,0.00
2023-03-15T21:21:35.894Z,0.00
2023-03-15T21:26:35.813Z,0.00
2023-03-15T21:31:35.882Z,0.00
2023-03-15T21:36:35.718Z,0.00
2023-03-15T21:41:35.728Z,0.00
2023-03-15T21:46:35.638Z,0.00
2023-03-15T21:51:35.546Z,0.00
2023-03-15T21:56:35.440Z,0.00
2023-03-15T22:01:35.757Z,0.00
2023-03-15T22:06:35.331Z,0.00
2023-03-15T22:11:35.316Z,0.00
2023-03-15T22:16:35.249Z,0.00
2023-03-15T22:21:35.114Z,0.00
2023-03-15T22:26:35.099Z,0.00
2023-03-15T22:31:34.970Z,0.00
2023-03-15T22:36:34.952Z,0.00
2023-03-15T22:41:34.859Z,0.00
2023-03-15T22:46:35.267Z,0.00
2023-03-15T22:51:34.732Z,0.00
2023-03-15T22:56:34.678Z,0.00
2023-03-15T23:01:34.607Z,0.00
2023-03-15T23:06:34.562Z,0.00
2023-03-15T23:11:34.476Z,0.00
2023-03-15T23:16:34.423Z,0.00
2023-03-15T23:21:34.364Z,0.00
2023-03-15T23:26:34.297Z,0.00
2023-03-15T23:31:34.242Z,0.00
2023-03-15T23:36:34.166Z,0.00
2023-03-15T23:41:34.082Z,0.00
2023-03-15T23:46:34.050Z,0.00
2023-03-15T23:51:34.034Z,0.00
2023-03-15T23:56:33.964Z,0.00
